Terminal Aerodrome Forecast
Issued by NWS Pocatello, ID

Home | Current Version | Previous Version | Text Only | Print | Product List | Glossary On
Versions: 1 2 3 4 5 6 7 8 9 10 11 12 13 14 15 16 17 18 19 20 21
000
FTUS45 KPIH 012300
TAFIDA
TAF
KIDA 012322Z 0200/0224 VRB04KT P6SM SCT025 OVC110
     FM020200 VRB04KT 6SM -SN SCT015 OVC035
     FM020600 22007KT 6SM -SN BR SCT008 OVC015
     FM021200 24007KT 4SM BR OVC006
     FM021700 22010KT P6SM -RASN SCT008 OVC015=

USA.gov is the U.S. government's official web portal to all federal, state and local government web resources and services.